sensor_id;sensor_type;location;lat;lon;timestamp;P1;durP1;ratioP1;P2;durP2;ratioP2
73776;SDS011;62088;50.240;2.696;2022-07-24T00:00:36;11.70;;;7.85;;
73776;SDS011;62088;50.240;2.696;2022-07-24T00:03:03;10.77;;;7.47;;
73776;SDS011;62088;50.240;2.696;2022-07-24T00:05:30;12.73;;;8.02;;
73776;SDS011;62088;50.240;2.696;2022-07-24T00:07:57;13.20;;;7.72;;
73776;SDS011;62088;50.240;2.696;2022-07-24T00:10:24;12.75;;;8.15;;
73776;SDS011;62088;50.240;2.696;2022-07-24T00:12:52;12.27;;;7.72;;
73776;SDS011;62088;50.240;2.696;2022-07-24T00:15:19;12.63;;;7.90;;
73776;SDS011;62088;50.240;2.696;2022-07-24T00:17:45;11.48;;;7.10;;
73776;SDS011;62088;50.240;2.696;2022-07-24T00:20:12;11.75;;;8.48;;
73776;SDS011;62088;50.240;2.696;2022-07-24T00:22:39;15.40;;;8.00;;
73776;SDS011;62088;50.240;2.696;2022-07-24T00:25:07;10.57;;;7.65;;
73776;SDS011;62088;50.240;2.696;2022-07-24T00:27:34;11.05;;;7.82;;
73776;SDS011;62088;50.240;2.696;2022-07-24T00:30:01;12.32;;;8.35;;
73776;SDS011;62088;50.240;2.696;2022-07-24T00:32:29;12.30;;;7.72;;
73776;SDS011;62088;50.240;2.696;2022-07-24T00:34:57;13.27;;;8.13;;
73776;SDS011;62088;50.240;2.696;2022-07-24T00:37:24;14.60;;;8.60;;
73776;SDS011;62088;50.240;2.696;2022-07-24T00:39:51;12.35;;;8.15;;
73776;SDS011;62088;50.240;2.696;2022-07-24T00:42:18;11.82;;;8.05;;
73776;SDS011;62088;50.240;2.696;2022-07-24T00:44:45;12.02;;;7.57;;
73776;SDS011;62088;50.240;2.696;2022-07-24T00:47:11;10.45;;;7.35;;
73776;SDS011;62088;50.240;2.696;2022-07-24T00:49:39;11.65;;;8.00;;
73776;SDS011;62088;50.240;2.696;2022-07-24T00:52:06;13.30;;;8.32;;
73776;SDS011;62088;50.240;2.696;2022-07-24T00:54:33;10.13;;;7.93;;
73776;SDS011;62088;50.240;2.696;2022-07-24T00:57:00;10.23;;;7.78;;
73776;SDS011;62088;50.240;2.696;2022-07-24T00:59:27;10.88;;;8.25;;
73776;SDS011;62088;50.240;2.696;2022-07-24T01:01:54;10.23;;;7.57;;
73776;SDS011;62088;50.240;2.696;2022-07-24T01:04:21;11.18;;;7.65;;
73776;SDS011;62088;50.240;2.696;2022-07-24T01:06:49;9.60;;;7.20;;
73776;SDS011;62088;50.240;2.696;2022-07-24T01:09:16;10.27;;;7.25;;
73776;SDS011;62088;50.240;2.696;2022-07-24T01:11:43;10.63;;;7.88;;
73776;SDS011;62088;50.240;2.696;2022-07-24T01:14:12;14.60;;;8.43;;
73776;SDS011;62088;50.240;2.696;2022-07-24T01:16:41;10.20;;;6.70;;
73776;SDS011;62088;50.240;2.696;2022-07-24T01:19:08;13.68;;;7.72;;
73776;SDS011;62088;50.240;2.696;2022-07-24T01:21:35;14.30;;;8.13;;
73776;SDS011;62088;50.240;2.696;2022-07-24T01:24:02;9.52;;;7.78;;
73776;SDS011;62088;50.240;2.696;2022-07-24T01:26:29;8.25;;;6.68;;
73776;SDS011;62088;50.240;2.696;2022-07-24T01:28:56;9.23;;;5.97;;
73776;SDS011;62088;50.240;2.696;2022-07-24T01:31:23;11.43;;;7.78;;
73776;SDS011;62088;50.240;2.696;2022-07-24T01:33:50;11.13;;;7.60;;
73776;SDS011;62088;50.240;2.696;2022-07-24T01:36:17;11.38;;;8.07;;
73776;SDS011;62088;50.240;2.696;2022-07-24T01:38:44;12.57;;;8.27;;
73776;SDS011;62088;50.240;2.696;2022-07-24T01:41:11;10.13;;;7.93;;
73776;SDS011;62088;50.240;2.696;2022-07-24T01:43:38;12.07;;;7.60;;
73776;SDS011;62088;50.240;2.696;2022-07-24T01:46:05;13.88;;;9.45;;
73776;SDS011;62088;50.240;2.696;2022-07-24T01:48:33;13.43;;;8.85;;
73776;SDS011;62088;50.240;2.696;2022-07-24T01:51:00;14.43;;;8.90;;
73776;SDS011;62088;50.240;2.696;2022-07-24T01:53:27;12.90;;;9.00;;
73776;SDS011;62088;50.240;2.696;2022-07-24T01:55:54;14.02;;;8.30;;
73776;SDS011;62088;50.240;2.696;2022-07-24T01:58:21;12.52;;;8.38;;
73776;SDS011;62088;50.240;2.696;2022-07-24T02:00:49;10.20;;;7.15;;
73776;SDS011;62088;50.240;2.696;2022-07-24T02:03:17;11.35;;;8.60;;
73776;SDS011;62088;50.240;2.696;2022-07-24T02:05:45;11.75;;;7.03;;
73776;SDS011;62088;50.240;2.696;2022-07-24T02:08:13;11.63;;;7.68;;
73776;SDS011;62088;50.240;2.696;2022-07-24T02:10:40;10.98;;;8.48;;
73776;SDS011;62088;50.240;2.696;2022-07-24T02:13:07;16.42;;;8.48;;
73776;SDS011;62088;50.240;2.696;2022-07-24T02:15:34;10.18;;;6.82;;
73776;SDS011;62088;50.240;2.696;2022-07-24T02:18:01;10.77;;;7.78;;
73776;SDS011;62088;50.240;2.696;2022-07-24T02:20:29;9.35;;;7.60;;
73776;SDS011;62088;50.240;2.696;2022-07-24T02:22:57;13.20;;;9.00;;
73776;SDS011;62088;50.240;2.696;2022-07-24T02:25:24;14.25;;;8.50;;
73776;SDS011;62088;50.240;2.696;2022-07-24T02:27:51;13.20;;;8.70;;
73776;SDS011;62088;50.240;2.696;2022-07-24T02:30:20;10.10;;;7.80;;
73776;SDS011;62088;50.240;2.696;2022-07-24T02:32:48;12.40;;;8.15;;
73776;SDS011;62088;50.240;2.696;2022-07-24T02:35:15;14.80;;;8.80;;
73776;SDS011;62088;50.240;2.696;2022-07-24T02:37:43;13.77;;;7.78;;
73776;SDS011;62088;50.240;2.696;2022-07-24T02:40:11;14.70;;;7.55;;
73776;SDS011;62088;50.240;2.696;2022-07-24T02:42:40;12.93;;;8.90;;
73776;SDS011;62088;50.240;2.696;2022-07-24T02:45:07;10.30;;;7.95;;
73776;SDS011;62088;50.240;2.696;2022-07-24T02:47:35;11.38;;;8.15;;
73776;SDS011;62088;50.240;2.696;2022-07-24T02:50:11;12.02;;;7.90;;
73776;SDS011;62088;50.240;2.696;2022-07-24T02:52:38;10.05;;;7.63;;
73776;SDS011;62088;50.240;2.696;2022-07-24T02:55:06;12.32;;;8.98;;
73776;SDS011;62088;50.240;2.696;2022-07-24T02:57:33;13.38;;;9.20;;
73776;SDS011;62088;50.240;2.696;2022-07-24T03:00:00;13.43;;;8.88;;
73776;SDS011;62088;50.240;2.696;2022-07-24T03:02:27;12.15;;;8.13;;
73776;SDS011;62088;50.240;2.696;2022-07-24T03:04:54;11.07;;;7.90;;
73776;SDS011;62088;50.240;2.696;2022-07-24T03:07:21;12.43;;;8.82;;
73776;SDS011;62088;50.240;2.696;2022-07-24T03:09:48;10.88;;;7.57;;
73776;SDS011;62088;50.240;2.696;2022-07-24T03:12:15;12.15;;;8.05;;
73776;SDS011;62088;50.240;2.696;2022-07-24T03:14:42;12.35;;;7.60;;
73776;SDS011;62088;50.240;2.696;2022-07-24T03:17:09;13.02;;;7.93;;
73776;SDS011;62088;50.240;2.696;2022-07-24T03:19:36;15.68;;;8.60;;
73776;SDS011;62088;50.240;2.696;2022-07-24T03:22:03;10.52;;;6.90;;
73776;SDS011;62088;50.240;2.696;2022-07-24T03:24:30;13.52;;;9.15;;
73776;SDS011;62088;50.240;2.696;2022-07-24T03:26:57;12.57;;;8.52;;
73776;SDS011;62088;50.240;2.696;2022-07-24T03:29:25;13.32;;;8.25;;
73776;SDS011;62088;50.240;2.696;2022-07-24T03:31:52;10.88;;;7.03;;
73776;SDS011;62088;50.240;2.696;2022-07-24T03:34:19;12.38;;;8.43;;
73776;SDS011;62088;50.240;2.696;2022-07-24T03:36:46;16.30;;;8.52;;
73776;SDS011;62088;50.240;2.696;2022-07-24T03:39:13;13.00;;;8.52;;
73776;SDS011;62088;50.240;2.696;2022-07-24T03:41:40;13.43;;;7.88;;
73776;SDS011;62088;50.240;2.696;2022-07-24T03:44:07;10.93;;;6.70;;
73776;SDS011;62088;50.240;2.696;2022-07-24T03:46:34;8.48;;;7.22;;
73776;SDS011;62088;50.240;2.696;2022-07-24T03:49:02;13.63;;;8.52;;
73776;SDS011;62088;50.240;2.696;2022-07-24T03:51:30;15.48;;;8.40;;
73776;SDS011;62088;50.240;2.696;2022-07-24T03:53:57;12.70;;;7.95;;
73776;SDS011;62088;50.240;2.696;2022-07-24T03:56:24;13.68;;;8.43;;
73776;SDS011;62088;50.240;2.696;2022-07-24T03:58:52;11.30;;;7.63;;
73776;SDS011;62088;50.240;2.696;2022-07-24T04:01:19;12.27;;;7.32;;
73776;SDS011;62088;50.240;2.696;2022-07-24T04:03:47;12.77;;;8.05;;
73776;SDS011;62088;50.240;2.696;2022-07-24T04:06:14;11.07;;;6.95;;
73776;SDS011;62088;50.240;2.696;2022-07-24T04:08:42;16.15;;;8.80;;
73776;SDS011;62088;50.240;2.696;2022-07-24T04:11:09;11.63;;;7.40;;
73776;SDS011;62088;50.240;2.696;2022-07-24T04:13:36;12.60;;;8.30;;
73776;SDS011;62088;50.240;2.696;2022-07-24T04:16:09;11.30;;;7.28;;
73776;SDS011;62088;50.240;2.696;2022-07-24T04:18:36;12.02;;;7.43;;
73776;SDS011;62088;50.240;2.696;2022-07-24T04:21:03;13.55;;;7.25;;
73776;SDS011;62088;50.240;2.696;2022-07-24T04:23:30;12.40;;;7.65;;
73776;SDS011;62088;50.240;2.696;2022-07-24T04:25:57;14.25;;;7.28;;
73776;SDS011;62088;50.240;2.696;2022-07-24T04:28:25;11.13;;;7.97;;
73776;SDS011;62088;50.240;2.696;2022-07-24T04:30:52;12.57;;;7.90;;
73776;SDS011;62088;50.240;2.696;2022-07-24T04:33:19;11.77;;;7.43;;
73776;SDS011;62088;50.240;2.696;2022-07-24T04:35:46;15.30;;;8.52;;
73776;SDS011;62088;50.240;2.696;2022-07-24T04:38:13;10.07;;;6.82;;
73776;SDS011;62088;50.240;2.696;2022-07-24T04:40:41;17.42;;;7.63;;
73776;SDS011;62088;50.240;2.696;2022-07-24T04:43:08;11.25;;;7.18;;
73776;SDS011;62088;50.240;2.696;2022-07-24T04:45:37;10.82;;;6.80;;
73776;SDS011;62088;50.240;2.696;2022-07-24T04:48:04;11.60;;;6.60;;
73776;SDS011;62088;50.240;2.696;2022-07-24T04:50:32;11.93;;;7.38;;
73776;SDS011;62088;50.240;2.696;2022-07-24T04:52:59;14.80;;;7.65;;
73776;SDS011;62088;50.240;2.696;2022-07-24T04:55:27;12.10;;;8.40;;
73776;SDS011;62088;50.240;2.696;2022-07-24T04:57:54;9.95;;;6.35;;
73776;SDS011;62088;50.240;2.696;2022-07-24T05:00:21;11.70;;;6.82;;
73776;SDS011;62088;50.240;2.696;2022-07-24T05:02:48;9.93;;;6.70;;
73776;SDS011;62088;50.240;2.696;2022-07-24T05:05:15;11.30;;;7.10;;
73776;SDS011;62088;50.240;2.696;2022-07-24T05:07:42;9.13;;;6.07;;
73776;SDS011;62088;50.240;2.696;2022-07-24T05:10:09;12.90;;;7.10;;
73776;SDS011;62088;50.240;2.696;2022-07-24T05:12:36;14.65;;;7.68;;
73776;SDS011;62088;50.240;2.696;2022-07-24T05:15:04;9.32;;;5.43;;
73776;SDS011;62088;50.240;2.696;2022-07-24T05:17:33;9.60;;;6.38;;
73776;SDS011;62088;50.240;2.696;2022-07-24T05:20:01;9.93;;;5.47;;
73776;SDS011;62088;50.240;2.696;2022-07-24T05:22:29;13.05;;;7.00;;
73776;SDS011;62088;50.240;2.696;2022-07-24T05:24:56;9.23;;;5.70;;
73776;SDS011;62088;50.240;2.696;2022-07-24T05:27:23;11.52;;;6.55;;
73776;SDS011;62088;50.240;2.696;2022-07-24T05:29:50;10.80;;;5.55;;
73776;SDS011;62088;50.240;2.696;2022-07-24T05:32:17;11.25;;;6.28;;
73776;SDS011;62088;50.240;2.696;2022-07-24T05:34:44;9.77;;;5.70;;
73776;SDS011;62088;50.240;2.696;2022-07-24T05:37:11;14.55;;;6.78;;
73776;SDS011;62088;50.240;2.696;2022-07-24T05:39:38;12.75;;;7.63;;
73776;SDS011;62088;50.240;2.696;2022-07-24T05:42:05;9.18;;;6.45;;
73776;SDS011;62088;50.240;2.696;2022-07-24T05:44:32;10.95;;;6.38;;
73776;SDS011;62088;50.240;2.696;2022-07-24T05:46:59;12.25;;;6.70;;
73776;SDS011;62088;50.240;2.696;2022-07-24T05:49:26;9.35;;;5.75;;
73776;SDS011;62088;50.240;2.696;2022-07-24T05:51:54;10.13;;;6.40;;
73776;SDS011;62088;50.240;2.696;2022-07-24T05:54:21;11.98;;;6.75;;
73776;SDS011;62088;50.240;2.696;2022-07-24T05:56:48;15.80;;;7.22;;
73776;SDS011;62088;50.240;2.696;2022-07-24T05:59:15;9.32;;;6.13;;
73776;SDS011;62088;50.240;2.696;2022-07-24T06:01:42;9.02;;;6.38;;
73776;SDS011;62088;50.240;2.696;2022-07-24T06:04:09;11.43;;;6.18;;
73776;SDS011;62088;50.240;2.696;2022-07-24T06:06:36;9.02;;;5.45;;
73776;SDS011;62088;50.240;2.696;2022-07-24T06:09:03;11.60;;;5.60;;
73776;SDS011;62088;50.240;2.696;2022-07-24T06:11:31;9.63;;;5.90;;
73776;SDS011;62088;50.240;2.696;2022-07-24T06:13:59;9.52;;;5.88;;
73776;SDS011;62088;50.240;2.696;2022-07-24T06:16:26;9.30;;;5.32;;
73776;SDS011;62088;50.240;2.696;2022-07-24T06:18:53;8.25;;;5.47;;
73776;SDS011;62088;50.240;2.696;2022-07-24T06:21:20;8.70;;;4.88;;
73776;SDS011;62088;50.240;2.696;2022-07-24T06:23:47;10.23;;;5.38;;
73776;SDS011;62088;50.240;2.696;2022-07-24T06:26:14;8.75;;;5.53;;
73776;SDS011;62088;50.240;2.696;2022-07-24T06:28:41;10.68;;;5.38;;
73776;SDS011;62088;50.240;2.696;2022-07-24T06:31:08;8.48;;;4.82;;
73776;SDS011;62088;50.240;2.696;2022-07-24T06:33:43;9.60;;;5.07;;
73776;SDS011;62088;50.240;2.696;2022-07-24T06:36:10;6.82;;;4.20;;
73776;SDS011;62088;50.240;2.696;2022-07-24T06:38:37;7.28;;;4.50;;
73776;SDS011;62088;50.240;2.696;2022-07-24T06:41:04;13.07;;;4.50;;
73776;SDS011;62088;50.240;2.696;2022-07-24T06:43:31;8.07;;;4.60;;
73776;SDS011;62088;50.240;2.696;2022-07-24T06:45:58;7.88;;;4.85;;
73776;SDS011;62088;50.240;2.696;2022-07-24T06:48:25;9.45;;;4.10;;
73776;SDS011;62088;50.240;2.696;2022-07-24T06:50:53;7.68;;;3.90;;
73776;SDS011;62088;50.240;2.696;2022-07-24T06:53:20;10.98;;;4.38;;
73776;SDS011;62088;50.240;2.696;2022-07-24T06:55:48;6.95;;;4.13;;
73776;SDS011;62088;50.240;2.696;2022-07-24T06:58:19;8.02;;;4.30;;
73776;SDS011;62088;50.240;2.696;2022-07-24T07:00:46;8.10;;;4.30;;
73776;SDS011;62088;50.240;2.696;2022-07-24T07:03:14;7.45;;;3.92;;
73776;SDS011;62088;50.240;2.696;2022-07-24T07:05:41;11.85;;;4.22;;
73776;SDS011;62088;50.240;2.696;2022-07-24T07:08:08;10.30;;;3.78;;
73776;SDS011;62088;50.240;2.696;2022-07-24T07:10:35;8.60;;;3.85;;
73776;SDS011;62088;50.240;2.696;2022-07-24T07:13:02;7.72;;;4.00;;
73776;SDS011;62088;50.240;2.696;2022-07-24T07:15:29;6.40;;;3.38;;
73776;SDS011;62088;50.240;2.696;2022-07-24T07:17:56;9.10;;;4.13;;
73776;SDS011;62088;50.240;2.696;2022-07-24T07:20:23;6.95;;;4.03;;
73776;SDS011;62088;50.240;2.696;2022-07-24T07:22:50;13.77;;;5.03;;
73776;SDS011;62088;50.240;2.696;2022-07-24T07:25:17;10.73;;;4.80;;
73776;SDS011;62088;50.240;2.696;2022-07-24T07:27:44;9.07;;;4.35;;
73776;SDS011;62088;50.240;2.696;2022-07-24T07:30:11;13.70;;;4.68;;
73776;SDS011;62088;50.240;2.696;2022-07-24T07:32:39;7.85;;;4.30;;
73776;SDS011;62088;50.240;2.696;2022-07-24T07:35:06;9.27;;;4.40;;
73776;SDS011;62088;50.240;2.696;2022-07-24T07:37:47;7.10;;;4.13;;
73776;SDS011;62088;50.240;2.696;2022-07-24T07:40:14;12.60;;;4.45;;
73776;SDS011;62088;50.240;2.696;2022-07-24T07:42:41;13.75;;;4.60;;
73776;SDS011;62088;50.240;2.696;2022-07-24T07:45:08;7.07;;;4.38;;
73776;SDS011;62088;50.240;2.696;2022-07-24T07:47:36;7.30;;;4.40;;
73776;SDS011;62088;50.240;2.696;2022-07-24T07:50:03;9.88;;;4.90;;
73776;SDS011;62088;50.240;2.696;2022-07-24T07:52:31;10.10;;;4.80;;
73776;SDS011;62088;50.240;2.696;2022-07-24T07:54:59;12.98;;;4.57;;
73776;SDS011;62088;50.240;2.696;2022-07-24T07:57:26;8.70;;;4.20;;
73776;SDS011;62088;50.240;2.696;2022-07-24T08:00:13;9.75;;;4.95;;
73776;SDS011;62088;50.240;2.696;2022-07-24T08:02:41;9.68;;;4.85;;
73776;SDS011;62088;50.240;2.696;2022-07-24T08:05:08;16.10;;;5.30;;
73776;SDS011;62088;50.240;2.696;2022-07-24T08:07:35;7.28;;;4.47;;
73776;SDS011;62088;50.240;2.696;2022-07-24T08:10:03;12.55;;;5.40;;
73776;SDS011;62088;50.240;2.696;2022-07-24T08:12:36;9.70;;;4.57;;
73776;SDS011;62088;50.240;2.696;2022-07-24T08:15:05;9.95;;;5.40;;
73776;SDS011;62088;50.240;2.696;2022-07-24T08:17:33;9.85;;;5.20;;
73776;SDS011;62088;50.240;2.696;2022-07-24T08:20:00;8.68;;;5.88;;
73776;SDS011;62088;50.240;2.696;2022-07-24T08:22:27;9.00;;;5.90;;
73776;SDS011;62088;50.240;2.696;2022-07-24T08:24:54;15.52;;;6.28;;
73776;SDS011;62088;50.240;2.696;2022-07-24T08:27:21;9.23;;;5.20;;
73776;SDS011;62088;50.240;2.696;2022-07-24T08:29:48;12.60;;;6.03;;
73776;SDS011;62088;50.240;2.696;2022-07-24T08:32:15;13.65;;;5.88;;
73776;SDS011;62088;50.240;2.696;2022-07-24T08:34:42;11.07;;;5.45;;
73776;SDS011;62088;50.240;2.696;2022-07-24T08:37:09;9.48;;;5.47;;
73776;SDS011;62088;50.240;2.696;2022-07-24T08:39:36;11.43;;;6.32;;
73776;SDS011;62088;50.240;2.696;2022-07-24T08:42:03;11.90;;;5.90;;
73776;SDS011;62088;50.240;2.696;2022-07-24T08:44:30;11.48;;;5.82;;
73776;SDS011;62088;50.240;2.696;2022-07-24T08:46:58;10.23;;;5.10;;
73776;SDS011;62088;50.240;2.696;2022-07-24T08:49:26;9.70;;;5.15;;
73776;SDS011;62088;50.240;2.696;2022-07-24T08:51:56;8.35;;;5.22;;
73776;SDS011;62088;50.240;2.696;2022-07-24T08:54:26;10.20;;;5.20;;
73776;SDS011;62088;50.240;2.696;2022-07-24T08:56:54;10.55;;;5.03;;
73776;SDS011;62088;50.240;2.696;2022-07-24T08:59:21;12.20;;;5.38;;
73776;SDS011;62088;50.240;2.696;2022-07-24T09:01:52;10.90;;;5.00;;
73776;SDS011;62088;50.240;2.696;2022-07-24T09:04:35;8.48;;;4.70;;
73776;SDS011;62088;50.240;2.696;2022-07-24T09:07:09;10.95;;;5.10;;
73776;SDS011;62088;50.240;2.696;2022-07-24T09:09:37;6.97;;;4.38;;
73776;SDS011;62088;50.240;2.696;2022-07-24T09:14:37;11.85;;;5.03;;
73776;SDS011;62088;50.240;2.696;2022-07-24T09:17:12;11.65;;;4.32;;
73776;SDS011;62088;50.240;2.696;2022-07-24T09:19:46;10.07;;;4.43;;
73776;SDS011;62088;50.240;2.696;2022-07-24T09:22:25;9.00;;;4.72;;
73776;SDS011;62088;50.240;2.696;2022-07-24T09:27:35;9.43;;;4.32;;
73776;SDS011;62088;50.240;2.696;2022-07-24T09:30:05;10.85;;;4.60;;
73776;SDS011;62088;50.240;2.696;2022-07-24T09:32:38;9.13;;;5.03;;
73776;SDS011;62088;50.240;2.696;2022-07-24T09:35:05;18.00;;;4.20;;
73776;SDS011;62088;50.240;2.696;2022-07-24T09:37:33;9.70;;;4.53;;
73776;SDS011;62088;50.240;2.696;2022-07-24T09:40:07;12.88;;;4.40;;
73776;SDS011;62088;50.240;2.696;2022-07-24T09:42:35;7.32;;;4.18;;
73776;SDS011;62088;50.240;2.696;2022-07-24T09:45:06;7.25;;;4.40;;
73776;SDS011;62088;50.240;2.696;2022-07-24T09:47:35;7.20;;;4.60;;
73776;SDS011;62088;50.240;2.696;2022-07-24T09:50:12;9.55;;;4.63;;
73776;SDS011;62088;50.240;2.696;2022-07-24T09:52:41;10.55;;;4.15;;
73776;SDS011;62088;50.240;2.696;2022-07-24T09:55:19;11.13;;;4.20;;
73776;SDS011;62088;50.240;2.696;2022-07-24T09:57:48;9.55;;;4.40;;
73776;SDS011;62088;50.240;2.696;2022-07-24T10:00:15;9.45;;;4.10;;
73776;SDS011;62088;50.240;2.696;2022-07-24T10:02:43;6.93;;;4.18;;
73776;SDS011;62088;50.240;2.696;2022-07-24T10:05:13;7.32;;;4.20;;
73776;SDS011;62088;50.240;2.696;2022-07-24T10:07:47;10.30;;;4.13;;
73776;SDS011;62088;50.240;2.696;2022-07-24T10:10:15;8.05;;;3.65;;
73776;SDS011;62088;50.240;2.696;2022-07-24T10:12:44;7.70;;;3.92;;
73776;SDS011;62088;50.240;2.696;2022-07-24T10:15:12;8.27;;;4.10;;
73776;SDS011;62088;50.240;2.696;2022-07-24T10:17:45;7.78;;;4.25;;
73776;SDS011;62088;50.240;2.696;2022-07-24T10:20:19;7.18;;;4.20;;
73776;SDS011;62088;50.240;2.696;2022-07-24T10:28:39;7.72;;;3.83;;
73776;SDS011;62088;50.240;2.696;2022-07-24T10:31:09;8.60;;;4.10;;
73776;SDS011;62088;50.240;2.696;2022-07-24T10:33:37;14.38;;;4.72;;
73776;SDS011;62088;50.240;2.696;2022-07-24T10:36:11;6.13;;;4.20;;
73776;SDS011;62088;50.240;2.696;2022-07-24T10:38:44;14.52;;;4.43;;
73776;SDS011;62088;50.240;2.696;2022-07-24T10:41:26;7.28;;;3.90;;
73776;SDS011;62088;50.240;2.696;2022-07-24T10:49:48;9.65;;;3.72;;
73776;SDS011;62088;50.240;2.696;2022-07-24T11:00:37;9.63;;;3.10;;
73776;SDS011;62088;50.240;2.696;2022-07-24T11:03:08;8.95;;;3.20;;
73776;SDS011;62088;50.240;2.696;2022-07-24T11:08:39;7.68;;;3.40;;
73776;SDS011;62088;50.240;2.696;2022-07-24T11:11:13;5.55;;;3.00;;
73776;SDS011;62088;50.240;2.696;2022-07-24T11:13:49;9.15;;;2.83;;
73776;SDS011;62088;50.240;2.696;2022-07-24T11:16:18;6.72;;;2.90;;
73776;SDS011;62088;50.240;2.696;2022-07-24T11:21:28;7.50;;;3.05;;
73776;SDS011;62088;50.240;2.696;2022-07-24T11:26:52;5.80;;;3.30;;
73776;SDS011;62088;50.240;2.696;2022-07-24T11:29:24;5.25;;;3.20;;
73776;SDS011;62088;50.240;2.696;2022-07-24T11:31:58;6.30;;;3.40;;
73776;SDS011;62088;50.240;2.696;2022-07-24T11:34:28;7.95;;;3.47;;
73776;SDS011;62088;50.240;2.696;2022-07-24T11:36:56;6.72;;;3.15;;
73776;SDS011;62088;50.240;2.696;2022-07-24T11:39:31;6.60;;;3.40;;
73776;SDS011;62088;50.240;2.696;2022-07-24T11:42:01;7.80;;;3.60;;
73776;SDS011;62088;50.240;2.696;2022-07-24T11:44:35;5.32;;;3.25;;
73776;SDS011;62088;50.240;2.696;2022-07-24T11:49:52;9.15;;;3.50;;
73776;SDS011;62088;50.240;2.696;2022-07-24T11:52:24;6.10;;;3.30;;
73776;SDS011;62088;50.240;2.696;2022-07-24T11:54:53;7.68;;;3.45;;
73776;SDS011;62088;50.240;2.696;2022-07-24T11:57:22;6.32;;;3.70;;
73776;SDS011;62088;50.240;2.696;2022-07-24T12:00:12;7.55;;;3.83;;
73776;SDS011;62088;50.240;2.696;2022-07-24T12:02:44;6.18;;;3.50;;
73776;SDS011;62088;50.240;2.696;2022-07-24T12:05:13;7.28;;;4.05;;
73776;SDS011;62088;50.240;2.696;2022-07-24T12:07:49;7.57;;;3.47;;
73776;SDS011;62088;50.240;2.696;2022-07-24T12:10:18;5.57;;;3.40;;
73776;SDS011;62088;50.240;2.696;2022-07-24T12:12:50;14.75;;;7.70;;
73776;SDS011;62088;50.240;2.696;2022-07-24T12:15:21;7.35;;;4.30;;
73776;SDS011;62088;50.240;2.696;2022-07-24T12:23:06;5.68;;;3.30;;
73776;SDS011;62088;50.240;2.696;2022-07-24T12:25:36;5.88;;;2.75;;
73776;SDS011;62088;50.240;2.696;2022-07-24T12:28:07;5.93;;;3.15;;
73776;SDS011;62088;50.240;2.696;2022-07-24T12:30:43;6.75;;;3.05;;
73776;SDS011;62088;50.240;2.696;2022-07-24T12:36:02;6.35;;;2.78;;
73776;SDS011;62088;50.240;2.696;2022-07-24T12:38:36;7.90;;;3.37;;
73776;SDS011;62088;50.240;2.696;2022-07-24T12:41:08;11.30;;;3.72;;
73776;SDS011;62088;50.240;2.696;2022-07-24T12:43:47;8.15;;;4.50;;
73776;SDS011;62088;50.240;2.696;2022-07-24T12:46:24;6.28;;;3.67;;
73776;SDS011;62088;50.240;2.696;2022-07-24T12:48:59;7.00;;;3.42;;
73776;SDS011;62088;50.240;2.696;2022-07-24T12:54:15;7.03;;;3.10;;
73776;SDS011;62088;50.240;2.696;2022-07-24T12:56:52;7.18;;;3.15;;
73776;SDS011;62088;50.240;2.696;2022-07-24T12:59:24;7.75;;;3.10;;
73776;SDS011;62088;50.240;2.696;2022-07-24T13:01:53;7.43;;;2.80;;
73776;SDS011;62088;50.240;2.696;2022-07-24T13:04:23;7.10;;;3.08;;
73776;SDS011;62088;50.240;2.696;2022-07-24T13:06:52;5.85;;;3.10;;
73776;SDS011;62088;50.240;2.696;2022-07-24T13:09:23;7.43;;;3.47;;
73776;SDS011;62088;50.240;2.696;2022-07-24T13:11:51;6.50;;;3.35;;
73776;SDS011;62088;50.240;2.696;2022-07-24T13:14:21;8.48;;;3.28;;
73776;SDS011;62088;50.240;2.696;2022-07-24T13:16:51;7.47;;;3.13;;
73776;SDS011;62088;50.240;2.696;2022-07-24T13:19:19;7.45;;;3.25;;
73776;SDS011;62088;50.240;2.696;2022-07-24T13:21:47;8.32;;;2.72;;
73776;SDS011;62088;50.240;2.696;2022-07-24T13:24:15;5.72;;;3.10;;
73776;SDS011;62088;50.240;2.696;2022-07-24T13:26:43;10.77;;;3.55;;
73776;SDS011;62088;50.240;2.696;2022-07-24T13:29:12;7.82;;;2.90;;
73776;SDS011;62088;50.240;2.696;2022-07-24T13:31:39;6.07;;;3.20;;
73776;SDS011;62088;50.240;2.696;2022-07-24T13:34:07;9.18;;;2.75;;
73776;SDS011;62088;50.240;2.696;2022-07-24T13:36:39;5.88;;;3.08;;
73776;SDS011;62088;50.240;2.696;2022-07-24T13:39:07;6.43;;;2.90;;
73776;SDS011;62088;50.240;2.696;2022-07-24T13:41:35;32.00;;;4.10;;
73776;SDS011;62088;50.240;2.696;2022-07-24T13:44:03;4.53;;;2.80;;
73776;SDS011;62088;50.240;2.696;2022-07-24T13:46:32;7.13;;;2.90;;
73776;SDS011;62088;50.240;2.696;2022-07-24T13:49:02;5.53;;;2.75;;
73776;SDS011;62088;50.240;2.696;2022-07-24T13:51:31;6.32;;;2.85;;
73776;SDS011;62088;50.240;2.696;2022-07-24T13:53:58;4.70;;;2.78;;
73776;SDS011;62088;50.240;2.696;2022-07-24T13:56:26;5.00;;;2.70;;
73776;SDS011;62088;50.240;2.696;2022-07-24T13:58:53;8.30;;;2.92;;
73776;SDS011;62088;50.240;2.696;2022-07-24T14:01:20;8.07;;;2.78;;
73776;SDS011;62088;50.240;2.696;2022-07-24T14:04:03;5.38;;;2.58;;
73776;SDS011;62088;50.240;2.696;2022-07-24T14:06:54;5.22;;;2.80;;
73776;SDS011;62088;50.240;2.696;2022-07-24T14:09:22;7.50;;;2.78;;
73776;SDS011;62088;50.240;2.696;2022-07-24T14:11:50;7.82;;;2.38;;
73776;SDS011;62088;50.240;2.696;2022-07-24T14:14:17;7.65;;;2.50;;
73776;SDS011;62088;50.240;2.696;2022-07-24T14:16:44;8.95;;;2.80;;
73776;SDS011;62088;50.240;2.696;2022-07-24T14:19:12;10.45;;;2.80;;
73776;SDS011;62088;50.240;2.696;2022-07-24T14:21:39;5.78;;;2.50;;
73776;SDS011;62088;50.240;2.696;2022-07-24T14:24:07;7.05;;;2.70;;
73776;SDS011;62088;50.240;2.696;2022-07-24T14:26:41;5.35;;;2.45;;
73776;SDS011;62088;50.240;2.696;2022-07-24T14:29:09;4.97;;;2.33;;
73776;SDS011;62088;50.240;2.696;2022-07-24T14:31:36;6.28;;;2.63;;
73776;SDS011;62088;50.240;2.696;2022-07-24T14:34:04;10.70;;;3.03;;
73776;SDS011;62088;50.240;2.696;2022-07-24T14:36:33;10.82;;;2.72;;
73776;SDS011;62088;50.240;2.696;2022-07-24T14:39:01;4.97;;;2.70;;
73776;SDS011;62088;50.240;2.696;2022-07-24T14:41:28;6.72;;;2.60;;
73776;SDS011;62088;50.240;2.696;2022-07-24T14:43:55;4.18;;;2.30;;
73776;SDS011;62088;50.240;2.696;2022-07-24T14:46:26;5.15;;;2.53;;
73776;SDS011;62088;50.240;2.696;2022-07-24T14:48:54;6.63;;;2.30;;
73776;SDS011;62088;50.240;2.696;2022-07-24T14:51:21;8.88;;;2.67;;
73776;SDS011;62088;50.240;2.696;2022-07-24T14:53:48;9.40;;;2.70;;
73776;SDS011;62088;50.240;2.696;2022-07-24T14:56:15;8.45;;;2.40;;
73776;SDS011;62088;50.240;2.696;2022-07-24T14:58:42;5.43;;;2.45;;
73776;SDS011;62088;50.240;2.696;2022-07-24T15:01:09;7.00;;;2.50;;
73776;SDS011;62088;50.240;2.696;2022-07-24T15:03:36;5.22;;;2.60;;
73776;SDS011;62088;50.240;2.696;2022-07-24T15:06:03;4.93;;;2.50;;
73776;SDS011;62088;50.240;2.696;2022-07-24T15:08:30;5.07;;;2.60;;
73776;SDS011;62088;50.240;2.696;2022-07-24T15:10:59;8.30;;;2.13;;
73776;SDS011;62088;50.240;2.696;2022-07-24T15:13:26;4.68;;;2.40;;
73776;SDS011;62088;50.240;2.696;2022-07-24T15:15:55;4.47;;;2.30;;
73776;SDS011;62088;50.240;2.696;2022-07-24T15:18:22;8.25;;;2.53;;
73776;SDS011;62088;50.240;2.696;2022-07-24T15:20:49;4.97;;;2.22;;
73776;SDS011;62088;50.240;2.696;2022-07-24T15:23:18;6.32;;;2.35;;
73776;SDS011;62088;50.240;2.696;2022-07-24T15:25:45;6.32;;;2.50;;
73776;SDS011;62088;50.240;2.696;2022-07-24T15:28:12;5.10;;;2.50;;
73776;SDS011;62088;50.240;2.696;2022-07-24T15:30:40;7.07;;;2.65;;
73776;SDS011;62088;50.240;2.696;2022-07-24T15:33:08;5.63;;;2.95;;
73776;SDS011;62088;50.240;2.696;2022-07-24T15:35:35;4.82;;;2.20;;